METAR AND TAF INFORMATION
METAR FOR TFFR
ADDS - METARS form results

(2303 UTC 25 January 2021)
Data provider http://aviationweather.gov/metar/data/
 
METAR text: TFFR 252300Z AUTO VRB03KT CAVOK 24/19 Q1015 NOSIG
Conditions at: TFFR (LE RAIZET , GP) observed 2300 UTC 25 January 2021
Temperature: 24.0°C (75°F)
Dewpoint: 19.0°C (66°F) [RH = 74%]
Pressure (altimeter): 29.97 inches Hg (1015.0 mb)
Winds: variable direction winds at 3 MPH (3 knots; 1.5 m/s)
Visibility: 6 or more miles (10+ km)
Ceiling: ceiling and visibility are OK
Clouds: unknown
Weather: no significant weather observed at this time

METAR text: TFFR 252230Z AUTO 08004KT CAVOK 25/19 Q1015 NOSIG
Conditions at: TFFR (LE RAIZET , GP) observed 2230 UTC 25 January 2021
Temperature: 25.0°C (77°F)
Dewpoint: 19.0°C (66°F) [RH = 69%]
Pressure (altimeter): 29.97 inches Hg (1015.0 mb)
Winds: from the E (80 degrees) at 5 MPH (4 knots; 2.1 m/s)
Visibility: 6 or more miles (10+ km)
Ceiling: ceiling and visibility are OK
Clouds: unknown
Weather: no significant weather observed at this time

Forecast for: TFFR (LE RAIZET , GP)
Text: TAF TFFR 251600Z 2518/2618 10010KT 9999 SCT040
Forecast period: 1800 to 2000 UTC 25 January 2021
Forecast type: FROM: standard forecast or significant change
Winds: from the E (100 degrees) at 12 MPH (10 knots; 5.1 m/s)
Visibility: 6 or more miles (10+ km)
Ceiling: at least 12,000 feet AGL
Clouds: scattered clouds at 4000 feet AGL
Weather: no significant weather forecast for this period
Text: BECMG 2520/2522 VRB02KT
Forecast period: 2000 UTC 25 January 2021 to 1000 UTC 26 January 2021
Forecast type: BECOMING: Conditions expected to become as follows by 2200 UTC 25 January 2021
Winds: variable direction winds at 2 MPH (2 knots; 1.0 m/s)
Visibility: 6 or more miles (10+ km)
Ceiling: at least 12,000 feet AGL
Clouds: scattered clouds at 4000 feet AGL
Weather: no significant weather forecast for this period
Text: BECMG 2610/2612 08010KT
Forecast period: 1000 to 1800 UTC 26 January 2021
Forecast type: BECOMING: Conditions expected to become as follows by 1200 UTC 26 January 2021
Winds: from the E (80 degrees) at 12 MPH (10 knots; 5.1 m/s)
Visibility: 6 or more miles (10+ km)
Ceiling: at least 12,000 feet AGL
Clouds: scattered clouds at 4000 feet AGL
Weather: no significant weather forecast for this period

 AIRPORT MAP

 RUNWAY INFORMATION
Runway 12 Runway length 11499 ft Runway width 148 ft
Runway elevation 5 ft Runway displaced threshold 1312 ft Runway heading 101
Runway 30 Runway length 11499 ft Runway width 148 ft
Runway elevation 32 ft Runway displaced threshold 820 ft Runway heading 281

 AIRPORT FREQUENCIES
Type APP Name RAIZET APP Frequency 121.3 MHZ
Type ATIS Name ATIS Frequency 127.6 MHZ
Type GND Name GND Frequency 121.85 MHZ
Type TWR Name RAIZET TWR Frequency 118.4 MHZ

 AIRPORT NEAR NAVIGATION AIDS
Type VOR-DME Name Pointe A Pitre Frequency 112900 KHZ
Type NDB Name Pointe A Pitre Frequency 385 KHZ



Powered by Virtual Airlines Manager [v2.6.2]